International Virtual Aviation Organisation

Russian Federation and Kazakhstan MCD

 

Карточка аэропорта UATG

Внимание!
Информация на этой странице в стадии наполнения.
Если вы не увидели какой-то информации, или заметили неточность - пожалуйста сообщите нам!
Спасибо!
Команда RU-STAFF
Название аэропортаАтырау
Название аэропорта (англ.)Atyrau
Превышение-72 ft. (-21.9 m.)
Координаты47°7.332', 51°49.764'
Высота перехода1570
Эшелон переходаFL40
Коды ответчика3450-3457, 3560-3567
Зона ОрВДАктобе РПИ (UATT)
Данные METARUATG 250430Z 16007MPS 5000 BR OVC003 M03/M03 Q1021 R14/CLRD70 NOSIG RMK QBB110 QFE768/1024
Проноз погоды (TAF)UATG 242305Z 2500/2524 VRB03MPS 3100 BR BKN005 BKN020 TX01/2511Z TNM03/2503Z TEMPO 2500/2505 0300 FZFG VV001 BECMG 2506/2507 16009MPS TEMPO 2506/2512 2000 -SHSNRA BR BKN005 OVC020CB BECMG 2513/2514 25004MPS
NOTAMshow/hide NOTAM
AWOS   TABLE

Информация о ВПП

ВПП Длина ВПП (м.) Покрытие Курс ВПП Частота ILS
323000Асфальтобетон329108.3
143000Асфальтобетон149109.9

Диспетчерские позиции

Позывной Наименование органа УВД Частота
UATG_APPАтырау Подход123.7
UATG_TWRАтырау Вышка118.1



Спутниковое изображение